createdAt,value
2022-09-13T00:01:22.910Z,7.70
2022-09-13T00:03:51.587Z,7.60
2022-09-13T00:06:21.489Z,7.60
2022-09-13T00:08:50.560Z,7.50
2022-09-13T00:11:21.629Z,7.50
2022-09-13T00:13:51.030Z,7.50
2022-09-13T00:16:23.243Z,7.40
2022-09-13T00:18:51.929Z,7.40
2022-09-13T00:21:21.929Z,7.40
2022-09-13T00:23:52.226Z,7.30
2022-09-13T00:26:23.510Z,7.30
2022-09-13T00:28:56.915Z,7.20
2022-09-13T00:31:30.730Z,7.20
2022-09-13T00:34:11.366Z,7.10
2022-09-13T00:36:40.340Z,7.00
2022-09-13T00:39:08.898Z,7.00
2022-09-13T00:41:41.329Z,6.90
2022-09-13T00:44:50.798Z,6.70
2022-09-13T00:47:26.467Z,6.80
2022-09-13T00:49:58.958Z,6.80
2022-09-13T00:52:30.407Z,6.80
2022-09-13T00:55:03.243Z,6.80
2022-09-13T00:57:34.800Z,6.80
2022-09-13T01:00:11.317Z,6.70
2022-09-13T01:02:43.375Z,6.60
2022-09-13T01:05:13.269Z,6.60
2022-09-13T01:07:42.011Z,6.50
2022-09-13T01:10:11.598Z,6.40
2022-09-13T01:12:47.019Z,6.40
2022-09-13T01:15:15.693Z,6.40
2022-09-13T01:17:46.349Z,6.30
2022-09-13T01:20:15.924Z,6.30
2022-09-13T01:23:13.837Z,6.20
2022-09-13T01:26:18.172Z,6.20
2022-09-13T01:29:23.833Z,6.20
2022-09-13T01:32:03.867Z,6.20
2022-09-13T01:34:41.940Z,6.20
2022-09-13T01:37:40.915Z,6.20
2022-09-13T01:40:21.210Z,6.20
2022-09-13T01:43:14.031Z,6.30
2022-09-13T01:45:53.656Z,6.20
2022-09-13T01:48:30.566Z,6.20
2022-09-13T01:51:04.457Z,6.10
2022-09-13T01:53:46.258Z,6.10
2022-09-13T01:56:24.279Z,6.10
2022-09-13T01:58:58.130Z,6.10
2022-09-13T02:01:32.786Z,6.00
2022-09-13T02:04:06.566Z,6.00
2022-09-13T02:06:38.157Z,6.00
2022-09-13T02:09:13.030Z,5.90
2022-09-13T02:11:45.974Z,5.90
2022-09-13T02:14:18.057Z,5.80
2022-09-13T02:16:52.614Z,5.90
2022-09-13T02:19:27.830Z,5.90
2022-09-13T02:22:00.347Z,5.80
2022-09-13T02:24:32.769Z,5.80
2022-09-13T02:27:06.606Z,5.80
2022-09-13T02:29:39.168Z,5.80
2022-09-13T02:32:12.305Z,5.80
2022-09-13T02:34:45.671Z,5.80
2022-09-13T02:37:14.745Z,5.90
2022-09-13T02:39:52.635Z,5.80
2022-09-13T02:42:23.587Z,5.90
2022-09-13T02:44:54.641Z,5.90
2022-09-13T02:47:35.423Z,5.90
2022-09-13T02:50:22.930Z,5.90
2022-09-13T02:53:00.766Z,5.90
2022-09-13T02:55:36.520Z,5.90
2022-09-13T02:58:11.346Z,6.00
2022-09-13T03:00:40.714Z,6.00
2022-09-13T03:03:13.779Z,6.00
2022-09-13T03:05:44.270Z,6.00
2022-09-13T03:08:20.395Z,6.00
2022-09-13T03:10:58.086Z,6.00
2022-09-13T03:13:52.722Z,5.90
2022-09-13T03:16:38.159Z,5.90
2022-09-13T03:19:21.813Z,6.00
2022-09-13T03:22:06.627Z,5.90
2022-09-13T03:24:42.176Z,5.90
2022-09-13T03:27:20.309Z,5.90
2022-09-13T03:29:55.673Z,5.90
2022-09-13T03:32:33.346Z,5.90
2022-09-13T03:35:07.589Z,5.90
2022-09-13T03:37:46.648Z,5.90
2022-09-13T03:40:17.693Z,5.90
2022-09-13T03:42:54.091Z,5.90
2022-09-13T03:45:29.739Z,5.90
2022-09-13T03:48:03.153Z,5.90
2022-09-13T03:50:33.164Z,5.90
2022-09-13T03:53:08.797Z,5.90
2022-09-13T03:55:42.111Z,5.90
2022-09-13T03:58:13.996Z,5.90
2022-09-13T04:00:42.694Z,5.90
2022-09-13T04:03:11.388Z,5.90
2022-09-13T04:05:40.294Z,5.90
2022-09-13T04:08:10.403Z,5.80
2022-09-13T04:10:39.085Z,5.90
2022-09-13T04:13:07.718Z,5.90
2022-09-13T04:15:36.354Z,5.90
2022-09-13T04:18:05.018Z,6.00
2022-09-13T04:20:33.743Z,6.00
2022-09-13T04:23:02.398Z,6.10
2022-09-13T04:25:32.439Z,6.20
2022-09-13T04:28:01.371Z,6.20
2022-09-13T04:30:30.412Z,6.40
2022-09-13T04:32:59.731Z,6.40
2022-09-13T04:35:29.370Z,6.50
2022-09-13T04:37:58.565Z,6.60
2022-09-13T04:40:27.383Z,6.60
2022-09-13T04:42:57.700Z,6.70
2022-09-13T04:45:27.216Z,6.60
2022-09-13T04:47:56.723Z,6.70
2022-09-13T04:50:26.449Z,6.70
2022-09-13T04:52:56.771Z,6.80
2022-09-13T04:55:26.268Z,6.80
2022-09-13T04:57:57.364Z,6.90
2022-09-13T05:00:26.496Z,6.90
2022-09-13T05:02:58.403Z,7.00
2022-09-13T05:05:29.057Z,7.10
2022-09-13T05:07:57.661Z,7.20
2022-09-13T05:10:26.524Z,7.20
2022-09-13T05:12:56.809Z,7.30
2022-09-13T05:15:25.395Z,7.40
2022-09-13T05:17:54.195Z,7.50
2022-09-13T05:20:22.898Z,7.60
2022-09-13T05:22:51.480Z,7.70
2022-09-13T05:25:24.144Z,7.80
2022-09-13T05:27:54.659Z,7.90
2022-09-13T05:30:24.639Z,8.10
2022-09-13T05:32:53.321Z,8.20
2022-09-13T05:35:21.915Z,8.30
2022-09-13T05:37:51.349Z,8.40
2022-09-13T05:40:20.298Z,8.50
2022-09-13T05:42:48.922Z,8.60
2022-09-13T05:45:17.910Z,8.70
2022-09-13T05:47:52.318Z,8.90
2022-09-13T05:50:45.206Z,9.00
2022-09-13T05:53:10.009Z,9.10
2022-09-13T05:55:38.645Z,9.20
2022-09-13T05:58:32.347Z,9.30
2022-09-13T06:01:00.936Z,9.50
2022-09-13T06:03:31.248Z,9.70
2022-09-13T06:06:00.621Z,9.80
2022-09-13T06:08:30.618Z,10.00
2022-09-13T06:11:00.334Z,10.20
2022-09-13T06:13:30.229Z,10.40
2022-09-13T06:16:00.330Z,10.50
2022-09-13T06:18:31.154Z,10.60
2022-09-13T06:21:00.929Z,10.80
2022-09-13T06:23:29.772Z,10.90
2022-09-13T06:26:02.930Z,11.10
2022-09-13T06:28:35.391Z,11.20
2022-09-13T06:31:07.600Z,11.30
2022-09-13T06:33:40.917Z,11.40
2022-09-13T06:36:12.182Z,11.60
2022-09-13T06:38:41.839Z,11.70
2022-09-13T06:41:12.111Z,11.80
2022-09-13T06:43:42.069Z,11.80
2022-09-13T06:46:12.193Z,11.90
2022-09-13T06:48:45.083Z,11.90
2022-09-13T06:51:15.597Z,12.00
2022-09-13T06:53:45.401Z,12.10
2022-09-13T06:56:15.208Z,12.10
2022-09-13T06:58:45.156Z,12.20
2022-09-13T07:01:16.358Z,12.40
2022-09-13T07:03:48.276Z,12.60
2022-09-13T07:06:22.196Z,12.60
2022-09-13T07:08:52.921Z,12.60
2022-09-13T07:11:23.534Z,12.70
2022-09-13T07:13:53.754Z,12.70
2022-09-13T07:16:24.785Z,12.80
2022-09-13T07:18:55.695Z,12.80
2022-09-13T07:21:24.695Z,12.90
2022-09-13T07:23:54.552Z,12.80
2022-09-13T07:26:23.739Z,12.70
2022-09-13T07:28:55.000Z,12.70
2022-09-13T07:31:25.278Z,12.60
2022-09-13T07:33:58.236Z,12.60
2022-09-13T07:36:27.944Z,12.50
2022-09-13T07:38:56.791Z,12.40
2022-09-13T07:41:27.582Z,12.30
2022-09-13T07:43:57.087Z,12.30
2022-09-13T07:46:27.659Z,12.30
2022-09-13T07:48:58.512Z,12.20
2022-09-13T07:51:28.594Z,12.20
2022-09-13T07:53:58.687Z,12.20
2022-09-13T07:56:29.061Z,12.30
2022-09-13T07:59:01.064Z,12.30
2022-09-13T08:01:31.394Z,12.30
2022-09-13T08:04:03.699Z,12.40
2022-09-13T08:06:34.047Z,12.40
2022-09-13T08:09:02.900Z,12.50
2022-09-13T08:11:34.184Z,12.60
2022-09-13T08:14:03.695Z,12.80
2022-09-13T08:16:32.999Z,12.90
2022-09-13T08:19:05.108Z,13.00
2022-09-13T08:21:35.470Z,13.10
2022-09-13T08:24:04.930Z,13.20
2022-09-13T08:26:35.990Z,13.30
2022-09-13T08:29:06.981Z,13.50
2022-09-13T08:31:36.247Z,13.50
2022-09-13T08:34:06.232Z,13.70
2022-09-13T08:36:34.844Z,13.70
2022-09-13T08:39:03.558Z,13.80
2022-09-13T08:41:54.161Z,13.90
2022-09-13T08:44:28.318Z,13.90
2022-09-13T08:47:01.117Z,14.00
2022-09-13T08:49:35.374Z,14.10
2022-09-13T08:52:16.212Z,14.20
2022-09-13T08:54:45.372Z,14.40
2022-09-13T08:57:21.555Z,14.50
2022-09-13T08:59:59.399Z,14.60
2022-09-13T09:02:50.307Z,14.80
2022-09-13T09:05:22.893Z,15.00
2022-09-13T09:07:55.891Z,15.20
2022-09-13T09:10:29.573Z,15.40
2022-09-13T09:13:01.123Z,15.50
2022-09-13T09:15:36.310Z,15.70
2022-09-13T09:18:08.587Z,15.90
2022-09-13T09:20:42.987Z,16.10
2022-09-13T09:23:21.429Z,16.40
2022-09-13T09:25:53.369Z,16.60
2022-09-13T09:28:21.923Z,16.80
2022-09-13T09:31:01.264Z,17.00
2022-09-13T09:33:43.384Z,17.30
2022-09-13T09:36:25.797Z,17.60
2022-09-13T09:38:54.987Z,17.80
2022-09-13T09:41:29.173Z,18.10
2022-09-13T09:44:03.176Z,18.30
2022-09-13T09:46:35.673Z,18.50
2022-09-13T09:49:33.052Z,18.80
2022-09-13T09:52:06.738Z,19.00
2022-09-13T09:54:38.397Z,19.30
2022-09-13T09:57:08.253Z,19.40
2022-09-13T09:59:37.330Z,19.60
2022-09-13T10:02:17.719Z,19.70
2022-09-13T10:04:57.101Z,19.80
2022-09-13T10:07:32.919Z,19.90
2022-09-13T10:10:06.638Z,19.90
2022-09-13T10:12:37.773Z,20.00
2022-09-13T10:15:15.622Z,19.90
2022-09-13T10:17:44.556Z,19.80
2022-09-13T10:20:31.648Z,19.80
2022-09-13T10:23:21.417Z,19.80
2022-09-13T10:26:04.877Z,19.80
2022-09-13T10:28:37.287Z,19.80
2022-09-13T10:31:10.462Z,19.80
2022-09-13T10:33:42.898Z,19.80
2022-09-13T10:36:29.599Z,19.90
2022-09-13T10:39:10.218Z,20.10
2022-09-13T10:41:42.187Z,20.20
2022-09-13T10:44:31.616Z,20.30
2022-09-13T10:47:03.193Z,20.40
2022-09-13T10:49:47.060Z,20.40
2022-09-13T10:52:27.179Z,20.50
2022-09-13T10:55:04.019Z,20.60
2022-09-13T10:57:37.910Z,20.70
2022-09-13T11:00:09.244Z,20.70
2022-09-13T11:03:04.608Z,20.90
2022-09-13T11:05:41.665Z,21.00
2022-09-13T11:08:40.970Z,21.00
2022-09-13T11:11:19.790Z,21.10
2022-09-13T11:14:02.778Z,21.30
2022-09-13T11:16:44.647Z,21.40
2022-09-13T11:19:32.097Z,21.50
2022-09-13T11:22:20.974Z,21.50
2022-09-13T11:25:05.175Z,21.60
2022-09-13T11:27:47.149Z,21.60
2022-09-13T11:30:19.710Z,21.60
2022-09-13T11:33:14.397Z,21.60
2022-09-13T11:35:56.021Z,21.50
2022-09-13T11:38:55.197Z,21.50
2022-09-13T11:41:35.562Z,21.50
2022-09-13T11:44:30.317Z,21.50
2022-09-13T11:47:09.283Z,21.50
2022-09-13T11:50:13.631Z,21.40
2022-09-13T11:52:50.137Z,21.40
2022-09-13T11:55:22.410Z,21.30
2022-09-13T11:57:54.875Z,21.40
2022-09-13T12:00:29.271Z,21.40
2022-09-13T12:03:05.108Z,21.50
2022-09-13T12:05:39.687Z,21.60
2022-09-13T12:08:14.814Z,21.60
2022-09-13T12:10:50.025Z,21.70
2022-09-13T12:13:22.231Z,21.70
2022-09-13T12:15:56.651Z,21.70
2022-09-13T12:18:29.927Z,21.70
2022-09-13T12:21:07.501Z,21.70
2022-09-13T12:23:40.743Z,21.80
2022-09-13T12:26:15.095Z,21.80
2022-09-13T12:28:50.212Z,21.80
2022-09-13T12:31:24.433Z,21.80
2022-09-13T12:33:53.333Z,21.80
2022-09-13T12:36:50.111Z,21.70
2022-09-13T12:39:40.523Z,21.50
2022-09-13T12:42:35.148Z,21.20
2022-09-13T12:45:19.190Z,21.00
2022-09-13T12:48:44.682Z,20.80
2022-09-13T12:51:36.399Z,20.60
2022-09-13T12:54:28.385Z,20.30
2022-09-13T12:57:16.966Z,20.00
2022-09-13T13:00:18.086Z,19.70
2022-09-13T13:02:54.832Z,19.50
2022-09-13T13:05:30.109Z,19.40
2022-09-13T13:08:03.651Z,19.30
2022-09-13T13:10:34.939Z,19.20
2022-09-13T13:13:15.064Z,19.10
2022-09-13T13:16:03.251Z,19.00
2022-09-13T13:18:33.883Z,18.90
2022-09-13T13:21:25.858Z,18.80
2022-09-13T13:24:31.445Z,18.70
2022-09-13T13:27:01.705Z,18.60
2022-09-13T13:29:31.998Z,18.40
2022-09-13T13:32:15.115Z,18.30
2022-09-13T13:34:49.373Z,18.10
2022-09-13T13:37:31.803Z,18.00
2022-09-13T13:40:27.073Z,17.90
2022-09-13T13:43:29.955Z,17.80
2022-09-13T13:46:17.625Z,17.80
2022-09-13T13:48:49.663Z,17.70
2022-09-13T13:51:24.151Z,17.70
2022-09-13T13:54:00.651Z,17.70
2022-09-13T13:56:46.190Z,17.80
2022-09-13T13:59:23.023Z,17.90
2022-09-13T14:01:56.414Z,18.00
2022-09-13T14:05:02.900Z,18.30
2022-09-13T14:08:22.220Z,18.40
2022-09-13T14:11:00.199Z,18.60
2022-09-13T14:13:45.663Z,18.80
2022-09-13T14:16:31.025Z,18.80
2022-09-13T14:19:24.408Z,18.80
2022-09-13T14:22:15.820Z,18.60
2022-09-13T14:24:47.046Z,18.60
2022-09-13T14:27:19.373Z,18.50
2022-09-13T14:29:50.385Z,18.60
2022-09-13T14:32:23.849Z,18.60
2022-09-13T14:34:57.984Z,18.60
2022-09-13T14:37:29.963Z,18.50
2022-09-13T14:40:01.984Z,18.50
2022-09-13T14:42:41.362Z,18.40
2022-09-13T14:45:15.081Z,18.30
2022-09-13T14:47:52.278Z,18.30
2022-09-13T14:50:25.511Z,18.20
2022-09-13T14:52:56.747Z,18.20
2022-09-13T14:55:29.330Z,18.20
2022-09-13T14:58:04.474Z,18.20
2022-09-13T15:00:36.259Z,18.20
2022-09-13T15:03:13.387Z,18.10
2022-09-13T15:05:43.037Z,18.20
2022-09-13T15:08:29.020Z,18.10
2022-09-13T15:10:59.807Z,18.10
2022-09-13T15:13:28.804Z,18.00
2022-09-13T15:15:57.883Z,17.90
2022-09-13T15:18:36.467Z,17.80
2022-09-13T15:21:17.573Z,17.80
2022-09-13T15:23:52.231Z,17.80
2022-09-13T15:26:24.067Z,17.80
2022-09-13T15:28:55.251Z,17.80
2022-09-13T15:31:25.668Z,17.70
2022-09-13T15:34:14.239Z,17.70
2022-09-13T15:36:42.945Z,17.70
2022-09-13T15:39:18.750Z,17.70
2022-09-13T15:41:54.783Z,17.60
2022-09-13T15:44:24.356Z,17.60
2022-09-13T15:46:54.978Z,17.50
2022-09-13T15:49:28.031Z,17.50
2022-09-13T15:51:58.985Z,17.40
2022-09-13T15:54:33.163Z,17.40
2022-09-13T15:57:03.138Z,17.40
2022-09-13T15:59:31.799Z,17.40
2022-09-13T16:02:03.358Z,17.40
2022-09-13T16:04:33.482Z,17.30
2022-09-13T16:07:02.077Z,17.10
2022-09-13T16:09:30.931Z,17.10
2022-09-13T16:11:59.717Z,17.00
2022-09-13T16:14:28.441Z,17.00
2022-09-13T16:16:57.117Z,17.00
2022-09-13T16:19:26.675Z,16.80
2022-09-13T16:21:56.848Z,16.80
2022-09-13T16:24:25.482Z,16.70
2022-09-13T16:26:54.115Z,16.60
2022-09-13T16:29:23.116Z,16.50
2022-09-13T16:31:52.088Z,16.50
2022-09-13T16:34:20.778Z,16.40
2022-09-13T16:36:49.448Z,16.40
2022-09-13T16:39:19.717Z,16.30
2022-09-13T16:41:49.056Z,16.30
2022-09-13T16:44:18.084Z,16.30
2022-09-13T16:46:46.875Z,16.30
2022-09-13T16:49:15.599Z,16.20
2022-09-13T16:51:44.176Z,16.20
2022-09-13T16:54:12.775Z,16.10
2022-09-13T16:56:43.260Z,16.10
2022-09-13T16:59:11.904Z,16.10
2022-09-13T17:01:40.539Z,16.00
2022-09-13T17:04:11.512Z,16.00
2022-09-13T17:06:40.788Z,15.90
2022-09-13T17:09:10.173Z,15.90
2022-09-13T17:11:41.034Z,15.90
2022-09-13T17:14:14.901Z,15.80
2022-09-13T17:16:46.932Z,15.80
2022-09-13T17:19:18.655Z,15.90
2022-09-13T17:21:48.269Z,15.80
2022-09-13T17:24:17.192Z,15.80
2022-09-13T17:26:47.755Z,15.80
2022-09-13T17:29:19.450Z,15.80
2022-09-13T17:31:50.139Z,15.80
2022-09-13T17:34:19.595Z,15.80
2022-09-13T17:36:51.182Z,15.80
2022-09-13T17:39:20.486Z,15.80
2022-09-13T17:41:50.030Z,15.70
2022-09-13T17:44:20.214Z,15.70
2022-09-13T17:46:48.802Z,15.70
2022-09-13T17:49:17.474Z,15.70
2022-09-13T17:51:46.255Z,15.70
2022-09-13T17:54:15.419Z,15.70
2022-09-13T17:56:45.905Z,15.70
2022-09-13T17:59:16.178Z,15.70
2022-09-13T18:01:48.199Z,15.70
2022-09-13T18:04:18.303Z,15.70
2022-09-13T18:06:47.378Z,15.70
2022-09-13T18:09:17.436Z,15.60
2022-09-13T18:11:46.431Z,15.60
2022-09-13T18:14:16.026Z,15.60
2022-09-13T18:16:47.138Z,15.60
2022-09-13T18:19:15.807Z,15.60
2022-09-13T18:21:44.669Z,15.60
2022-09-13T18:24:13.310Z,15.50
2022-09-13T18:26:41.929Z,15.60
2022-09-13T18:29:13.353Z,15.60
2022-09-13T18:31:44.006Z,15.60
2022-09-13T18:34:15.524Z,15.60
2022-09-13T18:36:44.379Z,15.60
2022-09-13T18:39:17.532Z,15.60
2022-09-13T18:41:48.130Z,15.60
2022-09-13T18:44:18.048Z,15.60
2022-09-13T18:46:47.137Z,15.60
2022-09-13T18:49:18.699Z,15.50
2022-09-13T18:51:49.641Z,15.50
2022-09-13T18:54:21.977Z,15.50
2022-09-13T18:56:50.638Z,15.50
2022-09-13T18:59:19.394Z,15.50
2022-09-13T19:01:49.176Z,15.50
2022-09-13T19:04:21.307Z,15.50
2022-09-13T19:06:51.996Z,15.50
2022-09-13T19:09:22.933Z,15.50
2022-09-13T19:11:53.849Z,15.50
2022-09-13T19:14:25.629Z,15.50
2022-09-13T19:16:57.857Z,15.50
2022-09-13T19:19:28.007Z,15.50
2022-09-13T19:21:57.172Z,15.50
2022-09-13T19:24:26.136Z,15.50
2022-09-13T19:26:54.873Z,15.50
2022-09-13T19:29:24.694Z,15.50
2022-09-13T19:31:56.133Z,15.50
2022-09-13T19:34:25.266Z,15.50
2022-09-13T19:36:58.419Z,15.40
2022-09-13T19:39:30.419Z,15.30
2022-09-13T19:42:01.824Z,15.20
2022-09-13T19:44:31.018Z,15.10
2022-09-13T19:49:50.893Z,15.30
2022-09-13T19:52:22.050Z,15.20
2022-09-13T19:54:52.610Z,15.20
2022-09-13T19:57:21.683Z,15.30
2022-09-13T19:59:50.310Z,15.30
2022-09-13T20:02:18.970Z,15.30
2022-09-13T20:04:49.501Z,15.30
2022-09-13T20:07:18.127Z,15.30
2022-09-13T20:09:48.434Z,15.30
2022-09-13T20:12:17.787Z,15.30
2022-09-13T20:14:48.504Z,15.30
2022-09-13T20:17:17.196Z,15.30
2022-09-13T20:19:50.129Z,15.30
2022-09-13T20:22:19.223Z,15.30
2022-09-13T20:24:49.360Z,15.30
2022-09-13T20:27:20.524Z,15.30
2022-09-13T20:29:49.406Z,15.40
2022-09-13T20:32:18.205Z,15.30
2022-09-13T20:34:48.759Z,15.30
2022-09-13T20:37:19.109Z,15.30
2022-09-13T20:39:49.731Z,15.30
2022-09-13T20:42:20.967Z,15.30
2022-09-13T20:44:52.016Z,15.30
2022-09-13T20:47:22.581Z,15.30
2022-09-13T20:49:53.100Z,15.30
2022-09-13T20:52:25.434Z,15.30
2022-09-13T20:55:00.000Z,15.30
2022-09-13T20:57:30.867Z,15.30
2022-09-13T20:59:59.425Z,15.30
2022-09-13T21:02:31.861Z,15.30
2022-09-13T21:05:03.526Z,15.30
2022-09-13T21:07:54.231Z,15.30
2022-09-13T21:10:29.276Z,15.30
2022-09-13T21:13:03.309Z,15.30
2022-09-13T21:15:37.293Z,15.20
2022-09-13T21:18:28.950Z,15.20
2022-09-13T21:20:59.471Z,15.20
2022-09-13T21:23:38.106Z,15.20
2022-09-13T21:26:13.838Z,15.20
2022-09-13T21:28:45.895Z,15.20
2022-09-13T21:31:21.428Z,15.20
2022-09-13T21:33:55.011Z,15.20
2022-09-13T21:36:24.591Z,15.20
2022-09-13T21:38:59.887Z,15.30
2022-09-13T21:41:36.674Z,15.30
2022-09-13T21:44:17.637Z,15.40
2022-09-13T21:46:46.764Z,15.40
2022-09-13T21:49:20.335Z,15.40
2022-09-13T21:51:53.599Z,15.40
2022-09-13T21:54:29.879Z,15.50
2022-09-13T21:57:05.407Z,15.50
2022-09-13T21:59:37.520Z,15.50
2022-09-13T22:02:08.848Z,15.50
2022-09-13T22:04:41.751Z,15.40
2022-09-13T22:07:14.425Z,15.40
2022-09-13T22:09:50.853Z,15.50
2022-09-13T22:12:32.918Z,15.40
2022-09-13T22:15:10.315Z,15.50
2022-09-13T22:17:44.674Z,15.40
2022-09-13T22:20:21.426Z,15.40
2022-09-13T22:22:56.107Z,15.40
2022-09-13T22:25:32.631Z,15.40
2022-09-13T22:28:11.235Z,15.40
2022-09-13T22:30:49.475Z,15.40
2022-09-13T22:33:22.822Z,15.40
2022-09-13T22:36:09.837Z,15.40
2022-09-13T22:38:53.045Z,15.50
2022-09-13T22:41:33.726Z,15.50
2022-09-13T22:44:10.747Z,15.50
2022-09-13T22:46:47.263Z,15.50
2022-09-13T22:49:22.108Z,15.50
2022-09-13T22:51:54.393Z,15.60
2022-09-13T22:54:32.355Z,15.60
2022-09-13T22:57:11.613Z,15.60
2022-09-13T22:59:44.104Z,15.50
2022-09-13T23:02:19.106Z,15.60
2022-09-13T23:04:50.158Z,15.60
2022-09-13T23:07:18.915Z,15.60
2022-09-13T23:09:53.125Z,15.60
2022-09-13T23:12:23.647Z,15.50
2022-09-13T23:15:02.903Z,15.50
2022-09-13T23:17:34.222Z,15.60
2022-09-13T23:20:04.666Z,15.60
2022-09-13T23:22:34.329Z,15.60
2022-09-13T23:25:06.397Z,15.70
2022-09-13T23:27:40.526Z,15.60
2022-09-13T23:30:14.589Z,15.60
2022-09-13T23:32:44.106Z,15.60
2022-09-13T23:35:16.164Z,15.60
2022-09-13T23:37:48.774Z,15.50
2022-09-13T23:40:24.401Z,15.50
2022-09-13T23:42:57.248Z,15.50
2022-09-13T23:45:32.367Z,15.50
2022-09-13T23:48:05.010Z,15.50
2022-09-13T23:50:37.587Z,15.50
2022-09-13T23:53:11.219Z,15.50
2022-09-13T23:55:43.220Z,15.50
2022-09-13T23:58:12.217Z,15.50
